Terminal Aerodrome Forecast
Issued by NWS Lake Charles, LA

Home | Current Version | Previous Version | Text Only | Print | Product List | Glossary On
Versions: 1 2 3 4 5 6 7 8 9 10 11 12 13 14 15 16 17
000
FTUS44 KLCH 230804 AAA
TAFAEX
TAF AMD
KAEX 230804Z 2308/2406 00000KT P6SM SCT200
      TEMPO 2308/2312 4SM BR
     FM231500 24004KT P6SM SCT200=

USA.gov is the U.S. government's official web portal to all federal, state and local government web resources and services.